Terminal Aerodrome Forecast
Issued by NWS

Home | Current Version | Previous Version | Graphics & Text | Print | Product List | Glossary On
Versions: 1 2 3 4 5 6 7 8 9 10 11 12 13 14 15 16 17 18 19 20 21 22 23 24
000
FTUS43 KLOT 241120
TAFMDW
TAF
KMDW 241120Z 2412/2518 02005KT P6SM VCSH SCT012 BKN025 OVC090
      TEMPO 2412/2414 BKN012 OVC025
     FM241600 05009KT P6SM BKN025 OVC070
     FM242100 04012KT P6SM SCT025 BKN100
     FM250400 01016G25KT P6SM SCT030 BKN100
     FM251100 01014G22KT P6SM SKC=

USA.gov is the U.S. government's official web portal to all federal, state and local government web resources and services.